createdAt,value
2023-05-31T00:01:54.795Z,12.95
2023-05-31T00:04:21.937Z,12.94
2023-05-31T00:06:49.062Z,12.96
2023-05-31T00:09:16.214Z,12.91
2023-05-31T00:11:43.495Z,12.95
2023-05-31T00:14:11.402Z,12.88
2023-05-31T00:16:56.280Z,12.83
2023-05-31T00:19:25.830Z,12.76
2023-05-31T00:21:53.177Z,12.80
2023-05-31T00:24:20.292Z,12.81
2023-05-31T00:26:47.463Z,12.79
2023-05-31T00:29:14.595Z,12.81
2023-05-31T00:31:42.505Z,12.82
2023-05-31T00:34:11.529Z,12.81
2023-05-31T00:36:38.730Z,12.75
2023-05-31T00:39:05.893Z,12.77
2023-05-31T00:41:33.014Z,12.71
2023-05-31T00:44:00.214Z,12.71
2023-05-31T00:46:29.168Z,12.72
2023-05-31T00:48:57.127Z,12.67
2023-05-31T00:51:26.433Z,12.68
2023-05-31T00:53:53.744Z,12.62
2023-05-31T00:56:22.988Z,12.59
2023-05-31T00:58:51.907Z,12.58
2023-05-31T01:01:19.397Z,12.55
2023-05-31T01:03:46.841Z,12.55
2023-05-31T01:06:14.035Z,12.53
2023-05-31T01:08:41.463Z,12.51
2023-05-31T01:11:22.604Z,12.56
2023-05-31T01:13:58.798Z,12.35
2023-05-31T01:16:33.964Z,12.12
2023-05-31T01:19:06.560Z,11.92
2023-05-31T01:22:02.607Z,11.90
2023-05-31T01:24:46.248Z,11.89
2023-05-31T01:27:17.336Z,11.94
2023-05-31T01:29:46.202Z,12.17
2023-05-31T01:32:15.358Z,12.17
2023-05-31T01:34:46.538Z,11.94
2023-05-31T01:37:13.917Z,11.78
2023-05-31T01:39:41.243Z,11.67
2023-05-31T01:42:10.765Z,11.68
2023-05-31T01:44:41.718Z,11.65
2023-05-31T01:47:10.355Z,11.65
2023-05-31T01:49:38.841Z,11.54
2023-05-31T01:52:14.039Z,11.66
2023-05-31T01:54:41.248Z,11.62
2023-05-31T01:57:09.038Z,11.89
2023-05-31T01:59:36.902Z,11.87
2023-05-31T02:02:05.302Z,11.69
2023-05-31T02:04:32.524Z,11.52
2023-05-31T02:07:01.461Z,11.35
2023-05-31T02:09:28.844Z,11.63
2023-05-31T02:11:55.922Z,11.87
2023-05-31T02:14:23.035Z,11.70
2023-05-31T02:16:50.149Z,11.50
2023-05-31T02:19:17.307Z,11.40
2023-05-31T02:21:44.458Z,11.37
2023-05-31T02:24:11.713Z,11.44
2023-05-31T02:26:38.775Z,11.41
2023-05-31T02:29:05.941Z,11.57
2023-05-31T02:31:33.144Z,11.83
2023-05-31T02:34:00.447Z,11.84
2023-05-31T02:36:29.989Z,11.70
2023-05-31T02:38:57.269Z,11.53
2023-05-31T02:41:24.409Z,11.41
2023-05-31T02:43:51.464Z,11.33
2023-05-31T02:46:18.665Z,11.20
2023-05-31T02:48:45.846Z,11.13
2023-05-31T02:51:12.921Z,11.27
2023-05-31T02:53:40.053Z,11.50
2023-05-31T02:56:07.220Z,11.60
2023-05-31T02:58:34.373Z,11.62
2023-05-31T03:01:01.708Z,11.65
2023-05-31T03:03:29.485Z,11.65
2023-05-31T03:05:56.803Z,11.67
2023-05-31T03:08:23.900Z,11.32
2023-05-31T03:10:51.101Z,11.10
2023-05-31T03:13:18.251Z,10.90
2023-05-31T03:15:45.970Z,10.79
2023-05-31T03:18:13.064Z,10.78
2023-05-31T03:20:40.538Z,11.12
2023-05-31T03:23:08.448Z,11.30
2023-05-31T03:25:35.677Z,11.13
2023-05-31T03:28:04.633Z,10.96
2023-05-31T03:30:31.774Z,10.96
2023-05-31T03:32:58.982Z,10.93
2023-05-31T03:35:26.196Z,10.91
2023-05-31T03:37:54.867Z,10.73
2023-05-31T03:40:22.144Z,11.12
2023-05-31T03:42:49.312Z,11.37
2023-05-31T03:45:16.571Z,11.38
2023-05-31T03:47:43.736Z,11.43
2023-05-31T03:50:11.848Z,11.53
2023-05-31T03:52:39.779Z,11.53
2023-05-31T03:55:07.147Z,11.56
2023-05-31T03:57:34.350Z,11.64
2023-05-31T04:00:01.488Z,11.61
2023-05-31T04:02:29.502Z,11.65
2023-05-31T04:04:56.801Z,11.59
2023-05-31T04:07:24.108Z,11.58
2023-05-31T04:09:51.329Z,11.59
2023-05-31T04:12:18.432Z,11.63
2023-05-31T04:14:45.643Z,11.71
2023-05-31T04:17:12.814Z,11.70
2023-05-31T04:19:40.032Z,11.66
2023-05-31T04:22:07.873Z,11.65
2023-05-31T04:24:35.024Z,11.66
2023-05-31T04:27:04.209Z,11.70
2023-05-31T04:29:31.362Z,11.78
2023-05-31T04:31:58.564Z,11.85
2023-05-31T04:34:27.803Z,11.81
2023-05-31T04:36:54.973Z,11.76
2023-05-31T04:39:23.730Z,11.75
2023-05-31T04:41:51.005Z,11.79
2023-05-31T04:44:20.262Z,11.77
2023-05-31T04:46:47.840Z,11.77
2023-05-31T04:49:14.935Z,11.73
2023-05-31T04:51:42.347Z,11.46
2023-05-31T04:54:09.570Z,11.42
2023-05-31T04:56:36.744Z,11.41
2023-05-31T04:59:03.920Z,11.63
2023-05-31T05:01:31.193Z,11.90
2023-05-31T05:03:58.412Z,12.10
2023-05-31T05:06:25.771Z,12.17
2023-05-31T05:08:53.025Z,12.19
2023-05-31T05:11:20.347Z,12.20
2023-05-31T05:13:47.590Z,12.27
2023-05-31T05:16:15.218Z,12.36
2023-05-31T05:18:42.449Z,12.41
2023-05-31T05:21:09.620Z,12.46
2023-05-31T05:23:38.547Z,12.51
2023-05-31T05:26:06.583Z,12.53
2023-05-31T05:28:33.667Z,12.57
2023-05-31T05:31:01.369Z,12.63
2023-05-31T05:33:30.062Z,12.76
2023-05-31T05:35:57.396Z,12.81
2023-05-31T05:38:24.497Z,12.91
2023-05-31T05:40:51.674Z,12.96
2023-05-31T05:43:18.730Z,12.88
2023-05-31T05:45:45.918Z,12.86
2023-05-31T05:48:13.218Z,12.84
2023-05-31T05:50:40.335Z,12.89
2023-05-31T05:53:07.489Z,13.02
2023-05-31T05:55:35.187Z,13.02
2023-05-31T05:58:02.310Z,13.06
2023-05-31T06:00:29.715Z,13.08
2023-05-31T06:02:57.014Z,13.08
2023-05-31T06:05:26.946Z,13.14
2023-05-31T06:07:55.233Z,13.17
2023-05-31T06:10:22.541Z,13.26
2023-05-31T06:12:49.815Z,13.29
2023-05-31T06:15:16.892Z,13.40
2023-05-31T06:17:44.806Z,13.51
2023-05-31T06:20:12.309Z,13.59
2023-05-31T06:22:39.602Z,13.67
2023-05-31T06:25:07.071Z,13.76
2023-05-31T06:27:34.248Z,13.83
2023-05-31T06:30:02.152Z,13.90
2023-05-31T06:32:30.414Z,13.97
2023-05-31T06:34:57.947Z,14.01
2023-05-31T06:37:25.098Z,14.06
2023-05-31T06:39:52.244Z,14.10
2023-05-31T06:42:19.907Z,14.13
2023-05-31T06:44:56.247Z,14.18
2023-05-31T06:47:24.873Z,14.23
2023-05-31T06:49:52.025Z,14.32
2023-05-31T06:52:19.235Z,14.39
2023-05-31T06:54:46.640Z,14.44
2023-05-31T06:57:13.756Z,14.49
2023-05-31T06:59:41.090Z,14.54
2023-05-31T07:02:08.466Z,14.58
2023-05-31T07:04:35.720Z,14.65
2023-05-31T07:07:03.624Z,14.68
2023-05-31T07:09:30.908Z,14.72
2023-05-31T07:11:58.268Z,14.74
2023-05-31T07:14:25.549Z,14.79
2023-05-31T07:16:52.677Z,14.87
2023-05-31T07:19:19.780Z,14.96
2023-05-31T07:21:46.880Z,15.01
2023-05-31T07:24:13.970Z,15.08
2023-05-31T07:26:41.412Z,15.13
2023-05-31T07:29:08.531Z,15.16
2023-05-31T07:31:35.656Z,15.19
2023-05-31T07:34:02.866Z,15.26
2023-05-31T07:36:30.061Z,15.30
2023-05-31T07:38:57.269Z,15.35
2023-05-31T07:41:24.361Z,15.37
2023-05-31T07:43:52.726Z,15.38
2023-05-31T07:46:19.864Z,15.42
2023-05-31T07:48:47.017Z,15.48
2023-05-31T07:51:14.199Z,15.54
2023-05-31T07:53:42.114Z,15.60
2023-05-31T07:56:09.568Z,15.70
2023-05-31T07:58:36.780Z,15.70
2023-05-31T08:01:04.416Z,15.74
2023-05-31T08:03:32.610Z,15.80
2023-05-31T08:05:59.925Z,15.81
2023-05-31T08:08:27.272Z,15.93
2023-05-31T08:10:54.474Z,15.93
2023-05-31T08:13:21.614Z,16.06
2023-05-31T08:15:48.699Z,16.08
2023-05-31T08:18:16.007Z,16.12
2023-05-31T08:20:43.135Z,16.18
2023-05-31T08:23:10.408Z,16.28
2023-05-31T08:25:41.678Z,16.34
2023-05-31T08:28:08.775Z,16.37
2023-05-31T08:30:35.998Z,16.48
2023-05-31T08:33:03.455Z,16.53
2023-05-31T08:35:30.611Z,16.59
2023-05-31T08:37:57.728Z,16.65
2023-05-31T08:40:25.490Z,16.72
2023-05-31T08:43:00.934Z,16.82
2023-05-31T08:45:29.961Z,16.88
2023-05-31T08:48:11.064Z,16.91
2023-05-31T08:50:39.385Z,16.90
2023-05-31T08:53:07.196Z,16.93
2023-05-31T08:55:34.451Z,16.93
2023-05-31T08:58:03.629Z,16.98
2023-05-31T09:00:31.508Z,17.01
2023-05-31T09:03:00.910Z,16.98
2023-05-31T09:05:28.190Z,16.96
2023-05-31T09:07:57.373Z,16.99
2023-05-31T09:10:24.479Z,17.04
2023-05-31T09:12:51.650Z,17.05
2023-05-31T09:15:23.072Z,17.15
2023-05-31T09:17:50.183Z,17.20
2023-05-31T09:20:19.226Z,17.20
2023-05-31T09:22:52.585Z,17.32
2023-05-31T09:25:19.704Z,17.35
2023-05-31T09:27:46.860Z,17.43
2023-05-31T09:30:16.104Z,17.51
2023-05-31T09:32:54.826Z,17.54
2023-05-31T09:35:25.909Z,17.51
2023-05-31T09:37:54.706Z,17.60
2023-05-31T09:40:26.852Z,17.66
2023-05-31T09:42:55.520Z,17.75
2023-05-31T09:45:23.533Z,17.85
2023-05-31T09:47:51.391Z,17.80
2023-05-31T09:50:20.748Z,17.89
2023-05-31T09:52:50.520Z,17.86
2023-05-31T09:55:18.265Z,17.91
2023-05-31T09:57:46.523Z,18.02
2023-05-31T10:00:19.261Z,18.08
2023-05-31T10:02:51.521Z,18.01
2023-05-31T10:05:19.948Z,18.08
2023-05-31T10:07:49.884Z,18.20
2023-05-31T10:10:21.408Z,18.24
2023-05-31T10:12:51.965Z,18.19
2023-05-31T10:15:28.617Z,18.29
2023-05-31T10:18:03.438Z,18.37
2023-05-31T10:20:36.166Z,18.46
2023-05-31T10:23:09.002Z,18.56
2023-05-31T10:25:57.921Z,18.44
2023-05-31T10:28:29.136Z,18.46
2023-05-31T10:30:58.280Z,18.51
2023-05-31T10:33:31.801Z,18.57
2023-05-31T10:36:00.458Z,18.69
2023-05-31T10:38:41.521Z,18.74
2023-05-31T10:41:22.573Z,18.65
2023-05-31T10:44:06.660Z,18.64
2023-05-31T10:46:36.517Z,18.69
2023-05-31T10:49:06.707Z,18.71
2023-05-31T10:51:41.202Z,18.75
2023-05-31T10:54:08.649Z,18.73
2023-05-31T10:56:41.850Z,18.80
2023-05-31T10:59:18.650Z,18.84
2023-05-31T11:01:46.142Z,18.89
2023-05-31T11:04:25.861Z,19.01
2023-05-31T11:06:55.519Z,19.05
2023-05-31T11:09:23.222Z,19.20
2023-05-31T11:11:51.123Z,19.15
2023-05-31T11:14:30.368Z,19.22
2023-05-31T11:17:07.677Z,19.17
2023-05-31T11:19:38.086Z,19.13
2023-05-31T11:22:10.624Z,19.12
2023-05-31T11:24:39.019Z,19.01
2023-05-31T11:27:11.623Z,19.01
2023-05-31T11:29:53.669Z,19.08
2023-05-31T11:32:22.350Z,19.05
2023-05-31T11:34:52.385Z,19.07
2023-05-31T11:37:19.971Z,19.19
2023-05-31T11:39:47.847Z,19.23
2023-05-31T11:42:15.958Z,19.23
2023-05-31T11:44:47.397Z,19.38
2023-05-31T11:47:19.900Z,19.39
2023-05-31T11:49:47.797Z,19.45
2023-05-31T11:52:19.406Z,19.48
2023-05-31T11:54:49.398Z,19.46
2023-05-31T11:57:21.895Z,19.47
2023-05-31T11:59:49.190Z,19.44
2023-05-31T12:02:16.250Z,19.57
2023-05-31T12:04:44.290Z,19.59
2023-05-31T12:07:13.680Z,19.57
2023-05-31T12:09:40.939Z,19.61
2023-05-31T12:12:08.468Z,19.62
2023-05-31T12:14:36.667Z,19.68
2023-05-31T12:19:39.125Z,19.68
2023-05-31T12:22:06.542Z,19.72
2023-05-31T12:24:33.666Z,19.79
2023-05-31T12:27:00.819Z,19.78
2023-05-31T12:29:32.309Z,19.78
2023-05-31T12:32:07.020Z,19.83
2023-05-31T12:34:36.752Z,19.87
2023-05-31T12:37:11.208Z,19.91
2023-05-31T12:39:39.089Z,19.93
2023-05-31T12:42:07.247Z,19.92
2023-05-31T12:44:37.554Z,20.05
2023-05-31T12:47:08.684Z,20.04
2023-05-31T12:49:38.370Z,20.10
2023-05-31T12:52:07.757Z,20.15
2023-05-31T12:54:39.042Z,20.16
2023-05-31T12:57:10.473Z,20.26
2023-05-31T12:59:38.983Z,20.21
2023-05-31T13:02:07.026Z,20.23
2023-05-31T13:04:34.488Z,20.27
2023-05-31T13:07:03.165Z,20.33
2023-05-31T13:09:30.377Z,20.30
2023-05-31T13:11:57.455Z,20.41
2023-05-31T13:14:26.153Z,20.39
2023-05-31T13:16:54.758Z,20.37
2023-05-31T13:19:22.039Z,20.45
2023-05-31T13:21:49.120Z,20.41
2023-05-31T13:24:16.373Z,20.35
2023-05-31T13:26:43.525Z,20.31
2023-05-31T13:29:10.838Z,20.25
2023-05-31T13:31:38.104Z,20.26
2023-05-31T13:34:05.514Z,20.24
2023-05-31T13:36:34.414Z,20.31
2023-05-31T13:39:19.754Z,20.37
2023-05-31T13:42:08.080Z,20.43
2023-05-31T13:44:55.171Z,20.44
2023-05-31T13:47:22.495Z,20.45
2023-05-31T13:49:49.814Z,20.49
2023-05-31T13:52:17.401Z,20.55
2023-05-31T13:54:44.591Z,20.42
2023-05-31T13:57:31.751Z,20.35
2023-05-31T14:00:20.509Z,20.38
2023-05-31T14:02:48.606Z,20.42
2023-05-31T14:05:15.897Z,20.45
2023-05-31T14:07:43.114Z,20.61
2023-05-31T14:10:10.862Z,20.65
2023-05-31T14:12:38.305Z,20.72
2023-05-31T14:15:06.063Z,20.67
2023-05-31T14:17:33.220Z,20.71
2023-05-31T14:20:07.521Z,20.68
2023-05-31T14:22:34.753Z,20.72
2023-05-31T14:25:01.926Z,20.75
2023-05-31T14:27:29.167Z,20.80
2023-05-31T14:29:56.327Z,20.80
2023-05-31T14:32:23.823Z,20.83
2023-05-31T14:34:51.465Z,20.82
2023-05-31T14:37:27.774Z,20.77
2023-05-31T14:40:03.949Z,20.82
2023-05-31T14:42:31.656Z,20.89
2023-05-31T14:44:58.960Z,21.03
2023-05-31T14:47:26.068Z,21.10
2023-05-31T14:49:53.326Z,21.17
2023-05-31T14:52:21.266Z,21.11
2023-05-31T14:57:15.662Z,21.14
2023-05-31T14:59:42.872Z,21.16
2023-05-31T15:02:10.370Z,21.32
2023-05-31T15:04:37.474Z,21.38
2023-05-31T15:07:04.836Z,21.35
2023-05-31T15:09:31.947Z,21.48
2023-05-31T15:11:59.183Z,21.54
2023-05-31T15:14:26.254Z,21.62
2023-05-31T15:16:53.485Z,21.56
2023-05-31T15:19:20.736Z,21.56
2023-05-31T15:21:47.909Z,21.58
2023-05-31T15:24:15.121Z,21.69
2023-05-31T15:27:00.155Z,21.79
2023-05-31T15:29:27.530Z,21.77
2023-05-31T15:31:57.641Z,21.76
2023-05-31T15:34:45.007Z,21.86
2023-05-31T15:37:12.180Z,21.94
2023-05-31T15:39:39.573Z,21.94
2023-05-31T15:42:07.548Z,21.95
2023-05-31T15:44:53.216Z,22.00
2023-05-31T15:47:40.490Z,21.94
2023-05-31T15:50:07.874Z,22.00
2023-05-31T15:52:44.016Z,21.96
2023-05-31T15:55:13.979Z,21.95
2023-05-31T15:57:41.397Z,22.10
2023-05-31T16:00:09.449Z,22.08
2023-05-31T16:02:36.613Z,21.92
2023-05-31T16:05:04.475Z,21.76
2023-05-31T16:07:31.610Z,21.83
2023-05-31T16:09:58.788Z,21.86
2023-05-31T16:12:25.974Z,21.81
2023-05-31T16:14:53.532Z,22.00
2023-05-31T16:17:20.730Z,22.02
2023-05-31T16:19:47.821Z,21.96
2023-05-31T16:22:20.684Z,21.95
2023-05-31T16:24:47.866Z,21.90
2023-05-31T16:27:15.545Z,21.94
2023-05-31T16:29:42.835Z,21.98
2023-05-31T16:32:10.257Z,21.98
2023-05-31T16:34:37.346Z,21.89
2023-05-31T16:37:06.038Z,21.86
2023-05-31T16:39:33.812Z,21.78
2023-05-31T16:42:01.269Z,21.64
2023-05-31T16:44:28.386Z,21.63
2023-05-31T16:46:56.830Z,21.73
2023-05-31T16:49:23.954Z,21.70
2023-05-31T16:51:51.866Z,21.65
2023-05-31T16:54:19.005Z,21.55
2023-05-31T16:56:46.132Z,21.58
2023-05-31T16:59:13.216Z,21.58
2023-05-31T17:01:40.498Z,21.53
2023-05-31T17:04:07.666Z,21.31
2023-05-31T17:06:34.882Z,21.24
2023-05-31T17:09:02.062Z,21.03
2023-05-31T17:11:29.650Z,20.80
2023-05-31T17:13:56.954Z,20.62
2023-05-31T17:16:24.333Z,20.38
2023-05-31T17:18:53.287Z,20.18
2023-05-31T17:21:20.538Z,19.88
2023-05-31T17:23:47.752Z,19.67
2023-05-31T17:26:17.094Z,19.38
2023-05-31T17:28:44.849Z,19.21
2023-05-31T17:31:12.012Z,18.97
2023-05-31T17:33:39.243Z,18.83
2023-05-31T17:36:08.104Z,18.65
2023-05-31T17:38:35.194Z,18.47
2023-05-31T17:41:02.381Z,18.26
2023-05-31T17:43:29.689Z,18.06
2023-05-31T17:45:58.879Z,17.91
2023-05-31T17:48:28.025Z,17.82
2023-05-31T17:50:55.549Z,17.66
2023-05-31T17:53:23.182Z,17.59
2023-05-31T17:55:50.389Z,17.55
2023-05-31T17:58:17.546Z,17.50
2023-05-31T18:00:44.886Z,17.42
2023-05-31T18:03:12.199Z,17.20
2023-05-31T18:05:39.472Z,17.23
2023-05-31T18:08:06.735Z,17.07
2023-05-31T18:10:33.876Z,17.08
2023-05-31T18:13:01.049Z,16.98
2023-05-31T18:15:28.274Z,16.84
2023-05-31T18:17:55.419Z,16.77
2023-05-31T18:20:22.542Z,16.89
2023-05-31T18:22:49.684Z,16.75
2023-05-31T18:25:16.904Z,16.76
2023-05-31T18:27:44.427Z,16.77
2023-05-31T18:30:13.059Z,16.74
2023-05-31T18:32:40.727Z,16.64
2023-05-31T18:35:08.252Z,16.53
2023-05-31T18:37:35.459Z,16.50
2023-05-31T18:40:02.694Z,16.39
2023-05-31T18:42:29.916Z,16.27
2023-05-31T18:44:57.164Z,16.13
2023-05-31T18:47:25.521Z,16.10
2023-05-31T18:49:54.202Z,16.07
2023-05-31T18:52:21.462Z,16.07
2023-05-31T18:54:48.638Z,16.07
2023-05-31T18:57:15.792Z,15.99
2023-05-31T18:59:43.623Z,15.91
2023-05-31T19:02:11.548Z,15.83
2023-05-31T19:04:38.697Z,15.88
2023-05-31T19:07:07.079Z,15.83
2023-05-31T19:09:34.231Z,15.81
2023-05-31T19:12:01.891Z,15.81
2023-05-31T19:14:29.070Z,15.74
2023-05-31T19:16:56.229Z,15.67
2023-05-31T19:19:23.421Z,15.57
2023-05-31T19:21:50.577Z,15.52
2023-05-31T19:24:17.773Z,15.56
2023-05-31T19:26:44.971Z,15.46
2023-05-31T19:29:12.377Z,15.47
2023-05-31T19:31:39.614Z,15.40
2023-05-31T19:34:07.025Z,15.47
2023-05-31T19:36:34.272Z,15.47
2023-05-31T19:39:04.541Z,15.55
2023-05-31T19:41:31.719Z,15.44
2023-05-31T19:43:58.899Z,15.44
2023-05-31T19:46:26.320Z,15.44
2023-05-31T19:48:53.680Z,15.42
2023-05-31T19:51:21.303Z,15.39
2023-05-31T19:53:48.460Z,15.42
2023-05-31T19:56:16.214Z,15.40
2023-05-31T19:58:43.510Z,15.44
2023-05-31T20:01:11.396Z,15.38
2023-05-31T20:03:38.967Z,15.32
2023-05-31T20:06:06.465Z,15.28
2023-05-31T20:08:34.306Z,15.22
2023-05-31T20:11:01.582Z,15.14
2023-05-31T20:13:29.072Z,15.17
2023-05-31T20:15:56.354Z,15.24
2023-05-31T20:18:24.116Z,15.21
2023-05-31T20:20:52.137Z,15.31
2023-05-31T20:23:19.525Z,15.14
2023-05-31T20:25:46.821Z,15.05
2023-05-31T20:28:14.108Z,15.10
2023-05-31T20:30:41.288Z,15.14
2023-05-31T20:33:08.530Z,15.16
2023-05-31T20:35:35.869Z,15.12
2023-05-31T20:38:02.978Z,15.10
2023-05-31T20:40:30.135Z,15.07
2023-05-31T20:42:57.220Z,15.13
2023-05-31T20:45:24.448Z,15.10
2023-05-31T20:47:51.681Z,15.02
2023-05-31T20:50:20.620Z,15.12
2023-05-31T20:52:51.526Z,15.10
2023-05-31T20:55:18.830Z,14.99
2023-05-31T20:57:46.553Z,14.89
2023-05-31T21:00:32.556Z,14.90
2023-05-31T21:03:19.696Z,14.96
2023-05-31T21:06:07.063Z,14.86
2023-05-31T21:11:35.301Z,14.74
2023-05-31T21:14:22.472Z,14.84
2023-05-31T21:17:09.567Z,14.88
2023-05-31T21:19:36.732Z,14.93
2023-05-31T21:22:04.091Z,14.93
2023-05-31T21:24:31.364Z,14.95
2023-05-31T21:26:58.669Z,14.73
2023-05-31T21:29:26.119Z,14.75
2023-05-31T21:31:53.332Z,14.71
2023-05-31T21:34:21.863Z,14.76
2023-05-31T21:36:49.132Z,14.83
2023-05-31T21:39:16.488Z,14.84
2023-05-31T21:41:43.835Z,14.80
2023-05-31T21:44:11.087Z,14.85
2023-05-31T21:46:38.223Z,14.79
2023-05-31T21:49:05.693Z,14.77
2023-05-31T21:53:20.893Z,14.80
2023-05-31T21:55:48.162Z,14.73
2023-05-31T21:58:15.549Z,14.71
2023-05-31T22:00:42.769Z,14.73
2023-05-31T22:03:09.969Z,14.72
2023-05-31T22:05:37.184Z,14.61
2023-05-31T22:08:04.391Z,14.56
2023-05-31T22:10:31.680Z,14.65
2023-05-31T22:12:58.817Z,14.72
2023-05-31T22:15:27.217Z,14.71
2023-05-31T22:17:55.852Z,14.61
2023-05-31T22:20:23.066Z,14.50
2023-05-31T22:22:51.117Z,14.42
2023-05-31T22:25:18.301Z,14.41
2023-05-31T22:27:45.516Z,14.34
2023-05-31T22:30:13.431Z,14.42
2023-05-31T22:32:40.710Z,14.49
2023-05-31T22:35:09.067Z,14.49
2023-05-31T22:37:36.631Z,14.57
2023-05-31T22:40:04.940Z,14.55
2023-05-31T22:42:32.165Z,14.54
2023-05-31T22:44:59.584Z,14.57
2023-05-31T22:47:26.750Z,14.52
2023-05-31T22:49:54.113Z,14.55
2023-05-31T22:52:21.562Z,14.48
2023-05-31T22:54:48.713Z,14.45
2023-05-31T22:57:16.201Z,14.37
2023-05-31T22:59:43.288Z,14.42
2023-05-31T23:02:10.941Z,14.56
2023-05-31T23:04:38.209Z,14.59
2023-05-31T23:07:05.444Z,14.58
2023-05-31T23:09:33.104Z,14.51
2023-05-31T23:12:01.973Z,14.49
2023-05-31T23:14:30.516Z,14.47
2023-05-31T23:17:00.045Z,14.53
2023-05-31T23:19:27.299Z,14.44
2023-05-31T23:21:54.931Z,14.46
2023-05-31T23:24:22.139Z,14.37
2023-05-31T23:26:49.549Z,14.26
2023-05-31T23:29:16.686Z,14.42
2023-05-31T23:31:43.959Z,14.38
2023-05-31T23:34:11.257Z,14.38
2023-05-31T23:36:38.457Z,14.32
2023-05-31T23:39:05.960Z,14.38
2023-05-31T23:41:33.750Z,14.21
2023-05-31T23:44:00.940Z,14.20
2023-05-31T23:46:28.357Z,14.23
2023-05-31T23:48:56.112Z,14.22
2023-05-31T23:51:23.244Z,14.14
2023-05-31T23:53:50.442Z,14.15
2023-05-31T23:56:17.888Z,14.11
2023-05-31T23:58:45.489Z,14.13
